sensor_id;sensor_type;location;lat;lon;timestamp;pressure;altitude;pressure_sealevel;temperature;humidity
4705;BME280;2366;51.332;6.610;2022-12-29T00:00:52;100142.16;;;14.16;75.10
4705;BME280;2366;51.332;6.610;2022-12-29T00:03:17;100136.66;;;14.08;75.72
4705;BME280;2366;51.332;6.610;2022-12-29T00:05:42;100138.25;;;14.20;75.51
4705;BME280;2366;51.332;6.610;2022-12-29T00:08:08;100135.06;;;14.26;75.08
4705;BME280;2366;51.332;6.610;2022-12-29T00:10:33;100120.78;;;14.06;75.55
4705;BME280;2366;51.332;6.610;2022-12-29T00:12:58;100115.78;;;14.13;75.12
4705;BME280;2366;51.332;6.610;2022-12-29T00:15:42;100116.94;;;14.20;74.82
4705;BME280;2366;51.332;6.610;2022-12-29T00:18:07;100121.22;;;14.32;74.09
4705;BME280;2366;51.332;6.610;2022-12-29T00:20:34;100118.38;;;14.24;74.50
4705;BME280;2366;51.332;6.610;2022-12-29T00:23:36;100124.38;;;14.47;73.74
4705;BME280;2366;51.332;6.610;2022-12-29T00:26:19;100112.47;;;14.21;74.54
4705;BME280;2366;51.332;6.610;2022-12-29T00:29:03;100110.19;;;14.16;75.13
4705;BME280;2366;51.332;6.610;2022-12-29T00:31:47;100107.47;;;14.27;75.04
4705;BME280;2366;51.332;6.610;2022-12-29T00:34:31;100109.13;;;14.28;75.11
4705;BME280;2366;51.332;6.610;2022-12-29T00:37:15;100101.25;;;14.27;75.75
4705;BME280;2366;51.332;6.610;2022-12-29T00:39:41;100095.44;;;14.12;77.09
4705;BME280;2366;51.332;6.610;2022-12-29T00:42:24;100102.53;;;14.02;78.04
4705;BME280;2366;51.332;6.610;2022-12-29T00:45:08;100101.91;;;13.88;79.21
4705;BME280;2366;51.332;6.610;2022-12-29T00:47:34;100088.69;;;13.87;79.95
4705;BME280;2366;51.332;6.610;2022-12-29T00:49:59;100090.13;;;13.91;79.67
4705;BME280;2366;51.332;6.610;2022-12-29T00:52:24;100086.16;;;13.85;79.33
4705;BME280;2366;51.332;6.610;2022-12-29T00:54:49;100069.06;;;13.88;79.69
4705;BME280;2366;51.332;6.610;2022-12-29T00:57:15;100083.38;;;13.87;79.35
4705;BME280;2366;51.332;6.610;2022-12-29T00:59:41;100083.25;;;13.88;78.24
4705;BME280;2366;51.332;6.610;2022-12-29T01:02:08;100075.56;;;13.95;77.60
4705;BME280;2366;51.332;6.610;2022-12-29T01:04:34;100082.66;;;14.06;76.80
4705;BME280;2366;51.332;6.610;2022-12-29T01:06:59;100070.47;;;14.13;75.52
4705;BME280;2366;51.332;6.610;2022-12-29T01:09:24;100077.13;;;14.28;75.21
4705;BME280;2366;51.332;6.610;2022-12-29T01:12:09;100082.38;;;14.39;73.87
4705;BME280;2366;51.332;6.610;2022-12-29T01:14:35;100069.84;;;14.30;73.25
4705;BME280;2366;51.332;6.610;2022-12-29T01:17:01;100071.88;;;14.38;73.23
4705;BME280;2366;51.332;6.610;2022-12-29T01:19:26;100071.72;;;14.39;72.78
4705;BME280;2366;51.332;6.610;2022-12-29T01:21:52;100070.75;;;14.41;72.27
4705;BME280;2366;51.332;6.610;2022-12-29T01:24:18;100071.06;;;14.47;72.16
4705;BME280;2366;51.332;6.610;2022-12-29T01:26:45;100070.22;;;14.47;71.97
4705;BME280;2366;51.332;6.610;2022-12-29T01:29:11;100061.31;;;14.57;71.55
4705;BME280;2366;51.332;6.610;2022-12-29T01:31:36;100061.16;;;14.59;71.33
4705;BME280;2366;51.332;6.610;2022-12-29T01:34:02;100058.94;;;14.74;70.38
4705;BME280;2366;51.332;6.610;2022-12-29T01:36:28;100050.31;;;14.51;70.97
4705;BME280;2366;51.332;6.610;2022-12-29T01:38:53;100057.31;;;14.52;71.00
4705;BME280;2366;51.332;6.610;2022-12-29T01:41:18;100055.41;;;14.64;70.56
4705;BME280;2366;51.332;6.610;2022-12-29T01:46:29;100047.25;;;14.55;70.23
4705;BME280;2366;51.332;6.610;2022-12-29T01:51:40;100053.16;;;14.59;70.68
4705;BME280;2366;51.332;6.610;2022-12-29T01:54:13;100024.44;;;14.42;70.27
4705;BME280;2366;51.332;6.610;2022-12-29T01:56:42;100021.03;;;14.39;70.23
4705;BME280;2366;51.332;6.610;2022-12-29T01:59:11;100032.47;;;14.51;70.00
4705;BME280;2366;51.332;6.610;2022-12-29T02:01:38;100037.94;;;14.50;69.65
4705;BME280;2366;51.332;6.610;2022-12-29T02:04:04;100052.59;;;14.65;69.27
4705;BME280;2366;51.332;6.610;2022-12-29T02:06:34;100050.94;;;14.64;69.05
4705;BME280;2366;51.332;6.610;2022-12-29T02:09:00;100054.03;;;14.69;68.15
4705;BME280;2366;51.332;6.610;2022-12-29T02:11:28;100042.81;;;14.75;68.39
4705;BME280;2366;51.332;6.610;2022-12-29T02:13:54;100053.75;;;14.72;68.30
4705;BME280;2366;51.332;6.610;2022-12-29T02:17:05;100042.81;;;14.75;67.64
4705;BME280;2366;51.332;6.610;2022-12-29T02:30:40;100029.34;;;14.77;66.93
4705;BME280;2366;51.332;6.610;2022-12-29T02:35:54;100020.25;;;14.49;67.25
4705;BME280;2366;51.332;6.610;2022-12-29T02:41:16;100010.44;;;14.49;67.05
4705;BME280;2366;51.332;6.610;2022-12-29T02:43:56;100007.09;;;14.57;66.40
4705;BME280;2366;51.332;6.610;2022-12-29T02:51:36;99999.16;;;14.86;65.42
4705;BME280;2366;51.332;6.610;2022-12-29T02:54:04;99999.28;;;14.75;65.77
4705;BME280;2366;51.332;6.610;2022-12-29T02:56:48;99993.94;;;14.85;65.49
4705;BME280;2366;51.332;6.610;2022-12-29T02:59:14;99994.53;;;14.88;65.18
4705;BME280;2366;51.332;6.610;2022-12-29T03:01:59;99999.44;;;14.93;65.32
4705;BME280;2366;51.332;6.610;2022-12-29T03:10:14;99984.56;;;14.90;65.32
4705;BME280;2366;51.332;6.610;2022-12-29T03:12:59;99988.63;;;14.85;65.35
4705;BME280;2366;51.332;6.610;2022-12-29T03:15:53;99977.38;;;14.81;65.90
4705;BME280;2366;51.332;6.610;2022-12-29T03:21:24;99977.38;;;14.91;65.43
4705;BME280;2366;51.332;6.610;2022-12-29T03:24:13;99968.69;;;14.98;65.34
4705;BME280;2366;51.332;6.610;2022-12-29T03:26:40;99965.03;;;14.90;65.46
4705;BME280;2366;51.332;6.610;2022-12-29T03:29:07;99971.75;;;14.94;65.48
4705;BME280;2366;51.332;6.610;2022-12-29T03:31:34;99970.22;;;14.82;66.19
4705;BME280;2366;51.332;6.610;2022-12-29T03:34:01;99967.53;;;14.91;66.26
4705;BME280;2366;51.332;6.610;2022-12-29T03:36:35;99975.72;;;14.90;66.61
4705;BME280;2366;51.332;6.610;2022-12-29T03:39:09;99967.81;;;14.78;66.95
4705;BME280;2366;51.332;6.610;2022-12-29T03:41:37;99968.97;;;14.86;67.01
4705;BME280;2366;51.332;6.610;2022-12-29T03:44:08;99972.19;;;14.89;66.55
4705;BME280;2366;51.332;6.610;2022-12-29T03:46:33;99960.09;;;14.85;67.09
4705;BME280;2366;51.332;6.610;2022-12-29T03:48:59;99957.44;;;14.75;67.42
4705;BME280;2366;51.332;6.610;2022-12-29T03:51:24;99958.13;;;14.68;67.57
4705;BME280;2366;51.332;6.610;2022-12-29T03:53:49;99955.91;;;14.73;67.76
4705;BME280;2366;51.332;6.610;2022-12-29T03:56:14;99942.84;;;14.79;67.57
4705;BME280;2366;51.332;6.610;2022-12-29T03:58:40;99938.03;;;14.83;67.40
4705;BME280;2366;51.332;6.610;2022-12-29T04:01:05;99939.75;;;14.84;67.43
4705;BME280;2366;51.332;6.610;2022-12-29T04:03:30;99934.13;;;14.77;67.30
4705;BME280;2366;51.332;6.610;2022-12-29T04:05:56;99935.94;;;14.87;67.34
4705;BME280;2366;51.332;6.610;2022-12-29T04:08:21;99931.44;;;14.87;67.00
4705;BME280;2366;51.332;6.610;2022-12-29T04:10:48;99923.34;;;14.79;67.05
4705;BME280;2366;51.332;6.610;2022-12-29T04:13:14;99931.34;;;14.79;67.31
4705;BME280;2366;51.332;6.610;2022-12-29T04:15:39;99938.50;;;14.88;67.12
4705;BME280;2366;51.332;6.610;2022-12-29T04:18:04;99936.94;;;15.05;66.36
4705;BME280;2366;51.332;6.610;2022-12-29T04:20:30;99943.97;;;14.87;66.44
4705;BME280;2366;51.332;6.610;2022-12-29T04:23:14;99940.88;;;14.91;66.44
4705;BME280;2366;51.332;6.610;2022-12-29T04:25:39;99934.53;;;14.83;66.24
4705;BME280;2366;51.332;6.610;2022-12-29T04:28:05;99948.47;;;14.86;66.34
4705;BME280;2366;51.332;6.610;2022-12-29T04:30:30;99936.94;;;15.05;65.31
4705;BME280;2366;51.332;6.610;2022-12-29T04:32:55;99941.28;;;15.06;64.95
4705;BME280;2366;51.332;6.610;2022-12-29T04:35:21;99945.66;;;15.07;64.92
4705;BME280;2366;51.332;6.610;2022-12-29T04:37:46;99947.19;;;15.00;64.97
4705;BME280;2366;51.332;6.610;2022-12-29T04:40:11;99952.38;;;14.92;64.99
4705;BME280;2366;51.332;6.610;2022-12-29T04:42:37;99960.38;;;14.92;65.22
4705;BME280;2366;51.332;6.610;2022-12-29T04:45:02;99957.31;;;14.87;65.12
4705;BME280;2366;51.332;6.610;2022-12-29T04:47:28;99952.97;;;14.86;65.43
4705;BME280;2366;51.332;6.610;2022-12-29T04:49:53;99952.81;;;14.97;64.55
4705;BME280;2366;51.332;6.610;2022-12-29T04:52:19;99964.59;;;15.04;64.04
4705;BME280;2366;51.332;6.610;2022-12-29T04:54:44;99956.34;;;15.07;63.89
4705;BME280;2366;51.332;6.610;2022-12-29T04:57:09;99956.59;;;15.04;63.45
4705;BME280;2366;51.332;6.610;2022-12-29T04:59:34;99949.44;;;14.95;63.45
4705;BME280;2366;51.332;6.610;2022-12-29T05:02:00;99946.78;;;14.95;63.46
4705;BME280;2366;51.332;6.610;2022-12-29T05:04:25;99964.19;;;14.89;63.44
4705;BME280;2366;51.332;6.610;2022-12-29T05:06:50;99961.09;;;14.94;63.24
4705;BME280;2366;51.332;6.610;2022-12-29T05:09:16;99963.22;;;14.90;62.98
4705;BME280;2366;51.332;6.610;2022-12-29T05:11:41;99961.34;;;14.81;62.96
4705;BME280;2366;51.332;6.610;2022-12-29T05:14:06;99968.25;;;14.84;62.84
4705;BME280;2366;51.332;6.610;2022-12-29T05:16:32;99976.84;;;14.97;62.22
4705;BME280;2366;51.332;6.610;2022-12-29T05:18:57;99979.78;;;15.04;61.21
4705;BME280;2366;51.332;6.610;2022-12-29T05:21:22;99993.41;;;15.10;60.31
4705;BME280;2366;51.332;6.610;2022-12-29T05:23:48;99981.03;;;14.99;59.83
4705;BME280;2366;51.332;6.610;2022-12-29T05:26:13;99988.38;;;15.07;60.45
4705;BME280;2366;51.332;6.610;2022-12-29T05:28:39;99986.97;;;15.03;61.85
4705;BME280;2366;51.332;6.610;2022-12-29T05:31:04;99998.72;;;14.91;63.26
4705;BME280;2366;51.332;6.610;2022-12-29T05:33:29;99987.75;;;14.65;65.02
4705;BME280;2366;51.332;6.610;2022-12-29T05:35:55;99986.75;;;14.56;66.17
4705;BME280;2366;51.332;6.610;2022-12-29T05:38:20;99995.09;;;14.42;67.52
4705;BME280;2366;51.332;6.610;2022-12-29T05:40:45;99997.44;;;14.25;68.43
4705;BME280;2366;51.332;6.610;2022-12-29T05:43:11;99997.66;;;14.12;69.24
4705;BME280;2366;51.332;6.610;2022-12-29T05:45:36;100003.34;;;13.98;69.83
4705;BME280;2366;51.332;6.610;2022-12-29T05:48:02;100010.59;;;13.86;70.50
4705;BME280;2366;51.332;6.610;2022-12-29T05:50:27;100012.06;;;13.79;70.74
4705;BME280;2366;51.332;6.610;2022-12-29T05:52:53;100015.41;;;13.71;71.13
4705;BME280;2366;51.332;6.610;2022-12-29T05:55:18;100007.22;;;13.63;71.34
4705;BME280;2366;51.332;6.610;2022-12-29T05:57:43;100012.94;;;13.59;71.83
4705;BME280;2366;51.332;6.610;2022-12-29T06:00:09;100012.22;;;13.56;71.82
4705;BME280;2366;51.332;6.610;2022-12-29T06:02:35;100013.22;;;13.55;72.27
4705;BME280;2366;51.332;6.610;2022-12-29T06:05:00;100020.22;;;13.56;72.22
4705;BME280;2366;51.332;6.610;2022-12-29T06:07:25;100022.16;;;13.54;72.26
4705;BME280;2366;51.332;6.610;2022-12-29T06:09:51;100017.94;;;13.52;72.32
4705;BME280;2366;51.332;6.610;2022-12-29T06:12:16;100028.00;;;13.48;72.25
4705;BME280;2366;51.332;6.610;2022-12-29T06:14:42;100026.88;;;13.51;72.06
4705;BME280;2366;51.332;6.610;2022-12-29T06:17:07;100036.19;;;13.56;71.98
4705;BME280;2366;51.332;6.610;2022-12-29T06:19:32;100043.72;;;13.72;71.19
4705;BME280;2366;51.332;6.610;2022-12-29T06:21:58;100043.41;;;13.87;70.36
4705;BME280;2366;51.332;6.610;2022-12-29T06:24:23;100044.16;;;13.98;68.71
4705;BME280;2366;51.332;6.610;2022-12-29T06:26:48;100063.38;;;14.23;68.11
4705;BME280;2366;51.332;6.610;2022-12-29T06:29:14;100052.50;;;14.36;67.08
4705;BME280;2366;51.332;6.610;2022-12-29T06:31:43;100056.56;;;14.40;66.75
4705;BME280;2366;51.332;6.610;2022-12-29T06:34:11;100057.84;;;14.46;66.53
4705;BME280;2366;51.332;6.610;2022-12-29T06:36:37;100059.28;;;14.50;66.09
4705;BME280;2366;51.332;6.610;2022-12-29T06:39:03;100058.75;;;14.56;65.10
4705;BME280;2366;51.332;6.610;2022-12-29T06:41:28;100063.09;;;14.57;65.42
4705;BME280;2366;51.332;6.610;2022-12-29T06:43:54;100057.94;;;14.55;65.31
4705;BME280;2366;51.332;6.610;2022-12-29T06:46:19;100058.03;;;14.54;65.23
4705;BME280;2366;51.332;6.610;2022-12-29T06:48:44;100052.25;;;14.49;64.82
4705;BME280;2366;51.332;6.610;2022-12-29T06:51:09;100056.41;;;14.32;65.27
4705;BME280;2366;51.332;6.610;2022-12-29T06:53:35;100060.56;;;14.25;65.33
4705;BME280;2366;51.332;6.610;2022-12-29T06:56:00;100064.28;;;14.33;65.33
4705;BME280;2366;51.332;6.610;2022-12-29T06:58:25;100061.19;;;14.38;64.45
4705;BME280;2366;51.332;6.610;2022-12-29T07:00:51;100059.38;;;14.38;64.60
4705;BME280;2366;51.332;6.610;2022-12-29T07:03:16;100064.16;;;14.45;64.10
4705;BME280;2366;51.332;6.610;2022-12-29T07:05:41;100066.44;;;14.49;63.85
4705;BME280;2366;51.332;6.610;2022-12-29T07:08:07;100063.88;;;14.48;63.22
4705;BME280;2366;51.332;6.610;2022-12-29T07:10:32;100073.94;;;14.55;63.02
4705;BME280;2366;51.332;6.610;2022-12-29T07:12:57;100078.97;;;14.58;62.97
4705;BME280;2366;51.332;6.610;2022-12-29T07:15:23;100080.09;;;14.56;62.84
4705;BME280;2366;51.332;6.610;2022-12-29T07:17:48;100085.94;;;14.50;62.59
4705;BME280;2366;51.332;6.610;2022-12-29T07:20:15;100085.94;;;14.50;62.57
4705;BME280;2366;51.332;6.610;2022-12-29T07:22:41;100086.34;;;14.45;62.29
4705;BME280;2366;51.332;6.610;2022-12-29T07:25:07;100096.88;;;14.47;62.30
4705;BME280;2366;51.332;6.610;2022-12-29T07:27:32;100091.56;;;14.47;62.39
4705;BME280;2366;51.332;6.610;2022-12-29T07:29:57;100098.84;;;14.45;62.35
4705;BME280;2366;51.332;6.610;2022-12-29T07:32:23;100093.75;;;14.42;62.35
4705;BME280;2366;51.332;6.610;2022-12-29T07:34:48;100089.66;;;14.37;61.72
4705;BME280;2366;51.332;6.610;2022-12-29T07:37:17;100106.38;;;14.39;61.89
4705;BME280;2366;51.332;6.610;2022-12-29T07:39:43;100106.38;;;14.39;61.50
4705;BME280;2366;51.332;6.610;2022-12-29T07:42:08;100107.19;;;14.30;61.77
4705;BME280;2366;51.332;6.610;2022-12-29T07:44:33;100107.97;;;14.21;61.96
4705;BME280;2366;51.332;6.610;2022-12-29T07:46:59;100109.63;;;14.12;62.21
4705;BME280;2366;51.332;6.610;2022-12-29T07:49:24;100112.69;;;14.08;62.31
4705;BME280;2366;51.332;6.610;2022-12-29T07:51:50;100115.06;;;14.11;62.04
4705;BME280;2366;51.332;6.610;2022-12-29T07:54:15;100121.72;;;14.16;62.15
4705;BME280;2366;51.332;6.610;2022-12-29T07:56:43;100126.13;;;14.27;61.75
4705;BME280;2366;51.332;6.610;2022-12-29T07:59:09;100130.78;;;14.35;61.60
4705;BME280;2366;51.332;6.610;2022-12-29T08:01:34;100128.06;;;14.25;61.45
4705;BME280;2366;51.332;6.610;2022-12-29T08:03:59;100133.91;;;14.19;61.50
4705;BME280;2366;51.332;6.610;2022-12-29T08:06:24;100136.78;;;14.06;61.91
4705;BME280;2366;51.332;6.610;2022-12-29T08:08:50;100137.63;;;14.07;61.85
4705;BME280;2366;51.332;6.610;2022-12-29T08:11:15;100141.00;;;14.09;61.80
4705;BME280;2366;51.332;6.610;2022-12-29T08:13:41;100143.59;;;14.20;61.35
4705;BME280;2366;51.332;6.610;2022-12-29T08:16:06;100150.69;;;14.31;60.62
4705;BME280;2366;51.332;6.610;2022-12-29T08:18:31;100158.28;;;14.35;60.73
4705;BME280;2366;51.332;6.610;2022-12-29T08:21:01;100155.81;;;14.44;60.46
4705;BME280;2366;51.332;6.610;2022-12-29T08:23:27;100158.34;;;14.45;60.41
4705;BME280;2366;51.332;6.610;2022-12-29T08:26:02;100158.06;;;14.48;60.31
4705;BME280;2366;51.332;6.610;2022-12-29T08:28:29;100161.13;;;14.44;60.50
4705;BME280;2366;51.332;6.610;2022-12-29T08:30:57;100153.31;;;14.52;60.36
4705;BME280;2366;51.332;6.610;2022-12-29T08:33:23;100172.19;;;14.39;60.76
4705;BME280;2366;51.332;6.610;2022-12-29T08:35:49;100172.31;;;14.37;61.33
4705;BME280;2366;51.332;6.610;2022-12-29T08:38:14;100169.81;;;14.36;61.72
4705;BME280;2366;51.332;6.610;2022-12-29T08:40:39;100180.16;;;14.29;61.87
4705;BME280;2366;51.332;6.610;2022-12-29T08:43:05;100179.56;;;14.26;61.95
4705;BME280;2366;51.332;6.610;2022-12-29T08:45:31;100167.25;;;14.34;60.93
4705;BME280;2366;51.332;6.610;2022-12-29T08:47:56;100174.16;;;14.16;60.86
4705;BME280;2366;51.332;6.610;2022-12-29T08:50:21;100170.44;;;13.86;61.45
4705;BME280;2366;51.332;6.610;2022-12-29T08:52:46;100176.78;;;13.74;61.92
4705;BME280;2366;51.332;6.610;2022-12-29T08:55:12;100169.91;;;13.71;61.71
4705;BME280;2366;51.332;6.610;2022-12-29T08:57:37;100185.06;;;13.71;62.11
4705;BME280;2366;51.332;6.610;2022-12-29T09:00:04;100189.16;;;13.75;62.31
4705;BME280;2366;51.332;6.610;2022-12-29T09:02:30;100191.75;;;15.51;58.91
4705;BME280;2366;51.332;6.610;2022-12-29T09:04:56;100196.59;;;16.16;55.26
4705;BME280;2366;51.332;6.610;2022-12-29T09:07:23;100195.44;;;16.75;53.92
4705;BME280;2366;51.332;6.610;2022-12-29T09:09:48;100196.59;;;16.73;53.09
4705;BME280;2366;51.332;6.610;2022-12-29T09:12:15;100192.78;;;15.89;55.00
4705;BME280;2366;51.332;6.610;2022-12-29T09:14:40;100190.84;;;15.22;57.29
4705;BME280;2366;51.332;6.610;2022-12-29T09:17:08;100190.06;;;15.00;57.99
4705;BME280;2366;51.332;6.610;2022-12-29T09:19:51;100195.78;;;14.86;58.46
4705;BME280;2366;51.332;6.610;2022-12-29T09:22:17;100189.69;;;14.74;58.47
4705;BME280;2366;51.332;6.610;2022-12-29T09:24:42;100199.22;;;14.76;58.22
4705;BME280;2366;51.332;6.610;2022-12-29T09:27:07;100191.06;;;14.68;58.33
4705;BME280;2366;51.332;6.610;2022-12-29T09:29:32;100187.56;;;14.47;58.81
4705;BME280;2366;51.332;6.610;2022-12-29T09:31:58;100197.34;;;14.57;58.53
4705;BME280;2366;51.332;6.610;2022-12-29T09:34:23;100202.16;;;14.52;58.43
4705;BME280;2366;51.332;6.610;2022-12-29T09:36:48;100193.28;;;14.63;58.07
4705;BME280;2366;51.332;6.610;2022-12-29T09:39:14;100195.94;;;14.63;57.96
4705;BME280;2366;51.332;6.610;2022-12-29T09:42:13;100192.44;;;14.63;57.73
4705;BME280;2366;51.332;6.610;2022-12-29T09:47:22;100194.28;;;14.62;57.34
4705;BME280;2366;51.332;6.610;2022-12-29T09:49:56;100185.59;;;14.49;57.03
4705;BME280;2366;51.332;6.610;2022-12-29T09:52:34;100200.22;;;14.54;56.96
4705;BME280;2366;51.332;6.610;2022-12-29T09:57:48;100204.00;;;14.73;56.49
4705;BME280;2366;51.332;6.610;2022-12-29T10:00:21;100211.53;;;14.68;56.15
4705;BME280;2366;51.332;6.610;2022-12-29T10:02:50;100202.28;;;14.62;56.06
4705;BME280;2366;51.332;6.610;2022-12-29T10:10:35;100218.88;;;14.54;55.22
4705;BME280;2366;51.332;6.610;2022-12-29T10:24:02;100216.91;;;14.98;53.86
4705;BME280;2366;51.332;6.610;2022-12-29T10:26:34;100222.09;;;15.00;53.09
4705;BME280;2366;51.332;6.610;2022-12-29T10:29:08;100212.00;;;15.04;52.92
4705;BME280;2366;51.332;6.610;2022-12-29T10:31:44;100224.34;;;15.05;52.46
4705;BME280;2366;51.332;6.610;2022-12-29T10:36:47;100234.59;;;14.99;53.03
4705;BME280;2366;51.332;6.610;2022-12-29T10:39:14;100238.28;;;15.08;53.23
4705;BME280;2366;51.332;6.610;2022-12-29T10:41:47;100243.09;;;15.14;53.00
4705;BME280;2366;51.332;6.610;2022-12-29T10:44:16;100250.66;;;15.09;53.02
4705;BME280;2366;51.332;6.610;2022-12-29T10:46:44;100238.72;;;15.13;53.15
4705;BME280;2366;51.332;6.610;2022-12-29T10:49:17;100248.63;;;15.23;52.96
4705;BME280;2366;51.332;6.610;2022-12-29T10:51:44;100258.81;;;15.08;53.16
4705;BME280;2366;51.332;6.610;2022-12-29T10:54:13;100249.44;;;15.23;52.91
4705;BME280;2366;51.332;6.610;2022-12-29T10:56:43;100251.41;;;15.21;52.88
4705;BME280;2366;51.332;6.610;2022-12-29T10:59:21;100260.13;;;15.23;52.59
4705;BME280;2366;51.332;6.610;2022-12-29T11:07:17;100266.31;;;15.24;52.47
4705;BME280;2366;51.332;6.610;2022-12-29T11:09:44;100270.50;;;15.16;52.10
4705;BME280;2366;51.332;6.610;2022-12-29T11:12:22;100272.69;;;15.02;52.52
4705;BME280;2366;51.332;6.610;2022-12-29T11:15:01;100275.53;;;15.10;52.82
4705;BME280;2366;51.332;6.610;2022-12-29T11:17:27;100277.91;;;15.03;52.89
4705;BME280;2366;51.332;6.610;2022-12-29T11:19:52;100285.97;;;14.92;53.22
4705;BME280;2366;51.332;6.610;2022-12-29T11:22:27;100289.41;;;15.04;52.72
4705;BME280;2366;51.332;6.610;2022-12-29T11:24:53;100287.78;;;14.91;53.42
4705;BME280;2366;51.332;6.610;2022-12-29T11:27:20;100294.66;;;15.15;52.63
4705;BME280;2366;51.332;6.610;2022-12-29T11:29:48;100293.19;;;15.32;51.76
4705;BME280;2366;51.332;6.610;2022-12-29T11:32:23;100295.03;;;15.41;51.49
4705;BME280;2366;51.332;6.610;2022-12-29T11:34:49;100304.38;;;15.56;51.51
4705;BME280;2366;51.332;6.610;2022-12-29T11:37:19;100289.47;;;15.54;51.16
4705;BME280;2366;51.332;6.610;2022-12-29T11:39:59;100295.53;;;15.66;50.62
4705;BME280;2366;51.332;6.610;2022-12-29T11:42:41;100304.38;;;15.56;50.80
4705;BME280;2366;51.332;6.610;2022-12-29T11:47:47;100318.00;;;15.53;50.86
4705;BME280;2366;51.332;6.610;2022-12-29T11:50:20;100317.09;;;15.74;50.41
4705;BME280;2366;51.332;6.610;2022-12-29T11:52:48;100315.94;;;15.67;49.79
4705;BME280;2366;51.332;6.610;2022-12-29T11:55:20;100312.44;;;15.66;50.05
4705;BME280;2366;51.332;6.610;2022-12-29T11:57:48;100317.34;;;15.71;50.16
4705;BME280;2366;51.332;6.610;2022-12-29T12:00:16;100321.09;;;15.58;50.30
4705;BME280;2366;51.332;6.610;2022-12-29T12:02:48;100320.81;;;15.52;50.18
4705;BME280;2366;51.332;6.610;2022-12-29T12:05:28;100324.44;;;15.41;50.92
4705;BME280;2366;51.332;6.610;2022-12-29T12:10:54;100320.31;;;15.37;50.89
4705;BME280;2366;51.332;6.610;2022-12-29T12:13:29;100325.41;;;15.40;50.90
4705;BME280;2366;51.332;6.610;2022-12-29T12:16:09;100330.47;;;15.33;50.92
4705;BME280;2366;51.332;6.610;2022-12-29T12:18:45;100345.78;;;15.41;51.13
4705;BME280;2366;51.332;6.610;2022-12-29T12:21:20;100344.25;;;15.38;50.83
4705;BME280;2366;51.332;6.610;2022-12-29T12:24:07;100337.97;;;15.18;50.97
4705;BME280;2366;51.332;6.610;2022-12-29T12:26:44;100351.88;;;15.22;51.45
4705;BME280;2366;51.332;6.610;2022-12-29T12:29:20;100343.03;;;15.22;51.23
4705;BME280;2366;51.332;6.610;2022-12-29T12:31:54;100335.16;;;15.20;51.32
4705;BME280;2366;51.332;6.610;2022-12-29T12:34:37;100343.03;;;15.22;51.36
4705;BME280;2366;51.332;6.610;2022-12-29T12:37:32;100339.44;;;15.32;51.16
4705;BME280;2366;51.332;6.610;2022-12-29T12:45:52;100360.16;;;15.19;51.43
4705;BME280;2366;51.332;6.610;2022-12-29T12:53:32;100368.56;;;15.14;51.66
4705;BME280;2366;51.332;6.610;2022-12-29T12:56:22;100361.28;;;15.16;51.57
4705;BME280;2366;51.332;6.610;2022-12-29T12:59:28;100360.66;;;15.03;51.57
4705;BME280;2366;51.332;6.610;2022-12-29T13:02:15;100366.94;;;15.02;52.37
4705;BME280;2366;51.332;6.610;2022-12-29T13:07:50;100364.56;;;14.99;52.06
4705;BME280;2366;51.332;6.610;2022-12-29T13:12:55;100376.06;;;14.99;52.25
4705;BME280;2366;51.332;6.610;2022-12-29T13:15:44;100376.97;;;15.10;52.13
4705;BME280;2366;51.332;6.610;2022-12-29T13:18:44;100374.94;;;15.02;52.54
4705;BME280;2366;51.332;6.610;2022-12-29T13:21:37;100378.84;;;14.98;52.35
4705;BME280;2366;51.332;6.610;2022-12-29T13:24:15;100386.41;;;14.93;52.54
4705;BME280;2366;51.332;6.610;2022-12-29T13:29:30;100378.22;;;14.85;52.69
4705;BME280;2366;51.332;6.610;2022-12-29T13:37:53;100384.97;;;14.89;52.55
4705;BME280;2366;51.332;6.610;2022-12-29T13:40:24;100383.31;;;14.88;52.50
4705;BME280;2366;51.332;6.610;2022-12-29T13:42:50;100384.19;;;14.98;52.33
4705;BME280;2366;51.332;6.610;2022-12-29T13:45:20;100389.81;;;14.95;52.44
4705;BME280;2366;51.332;6.610;2022-12-29T13:48:13;100387.03;;;14.96;52.29
4705;BME280;2366;51.332;6.610;2022-12-29T13:50:40;100392.78;;;14.81;52.40
4705;BME280;2366;51.332;6.610;2022-12-29T13:53:29;100389.47;;;14.88;52.58
4705;BME280;2366;51.332;6.610;2022-12-29T13:59:06;100393.84;;;14.68;52.91
4705;BME280;2366;51.332;6.610;2022-12-29T14:04:29;100382.09;;;14.81;52.66
4705;BME280;2366;51.332;6.610;2022-12-29T14:07:11;100398.28;;;14.68;52.72
4705;BME280;2366;51.332;6.610;2022-12-29T14:09:41;100408.47;;;14.74;52.54
4705;BME280;2366;51.332;6.610;2022-12-29T14:17:35;100413.91;;;14.84;52.36
4705;BME280;2366;51.332;6.610;2022-12-29T14:20:02;100409.28;;;14.86;52.38
4705;BME280;2366;51.332;6.610;2022-12-29T14:22:28;100412.38;;;14.91;52.39
4705;BME280;2366;51.332;6.610;2022-12-29T14:24:54;100413.91;;;14.72;52.82
4705;BME280;2366;51.332;6.610;2022-12-29T14:29:49;100420.28;;;14.60;53.12
4705;BME280;2366;51.332;6.610;2022-12-29T14:34:53;100414.72;;;14.52;53.48
4705;BME280;2366;51.332;6.610;2022-12-29T14:39:46;100430.84;;;14.62;53.01
4705;BME280;2366;51.332;6.610;2022-12-29T14:42:19;100433.31;;;14.42;53.43
4705;BME280;2366;51.332;6.610;2022-12-29T14:44:51;100428.31;;;14.49;53.46
4705;BME280;2366;51.332;6.610;2022-12-29T14:49:55;100429.53;;;14.45;53.54
4705;BME280;2366;51.332;6.610;2022-12-29T14:52:25;100420.91;;;14.41;53.22
4705;BME280;2366;51.332;6.610;2022-12-29T14:57:25;100428.81;;;14.43;53.75
4705;BME280;2366;51.332;6.610;2022-12-29T14:59:55;100429.31;;;14.36;53.77
4705;BME280;2366;51.332;6.610;2022-12-29T15:02:24;100434.63;;;14.36;53.76
4705;BME280;2366;51.332;6.610;2022-12-29T15:04:53;100433.44;;;14.29;53.74
4705;BME280;2366;51.332;6.610;2022-12-29T15:07:23;100446.25;;;14.35;53.95
4705;BME280;2366;51.332;6.610;2022-12-29T15:09:56;100449.06;;;14.34;54.03
4705;BME280;2366;51.332;6.610;2022-12-29T15:12:38;100444.13;;;14.29;53.80
4705;BME280;2366;51.332;6.610;2022-12-29T15:15:27;100448.00;;;14.25;54.02
4705;BME280;2366;51.332;6.610;2022-12-29T15:17:53;100450.19;;;14.09;54.42
4705;BME280;2366;51.332;6.610;2022-12-29T15:20:30;100437.69;;;14.09;54.28
4705;BME280;2366;51.332;6.610;2022-12-29T15:23:07;100449.25;;;14.10;54.20
4705;BME280;2366;51.332;6.610;2022-12-29T15:25:34;100448.25;;;14.11;54.12